sensor_id;sensor_type;location;lat;lon;timestamp;P1;durP1;ratioP1;P2;durP2;ratioP2
7029;SDS011;3556;53.500;10.176;2022-09-13T00:00:20;5.43;;;5.07;;
7029;SDS011;3556;53.500;10.176;2022-09-13T00:02:45;5.77;;;5.37;;
7029;SDS011;3556;53.500;10.176;2022-09-13T00:05:11;6.10;;;5.80;;
7029;SDS011;3556;53.500;10.176;2022-09-13T00:07:37;6.03;;;5.73;;
7029;SDS011;3556;53.500;10.176;2022-09-13T00:10:03;5.20;;;5.00;;
7029;SDS011;3556;53.500;10.176;2022-09-13T00:12:28;6.00;;;5.70;;
7029;SDS011;3556;53.500;10.176;2022-09-13T00:14:54;5.90;;;5.70;;
7029;SDS011;3556;53.500;10.176;2022-09-13T00:17:20;5.47;;;5.33;;
7029;SDS011;3556;53.500;10.176;2022-09-13T00:19:46;6.17;;;5.40;;
7029;SDS011;3556;53.500;10.176;2022-09-13T00:22:12;5.53;;;5.43;;
7029;SDS011;3556;53.500;10.176;2022-09-13T00:24:38;5.63;;;5.50;;
7029;SDS011;3556;53.500;10.176;2022-09-13T00:27:03;5.90;;;5.60;;
7029;SDS011;3556;53.500;10.176;2022-09-13T00:29:29;6.60;;;6.07;;
7029;SDS011;3556;53.500;10.176;2022-09-13T00:31:54;5.53;;;5.33;;
7029;SDS011;3556;53.500;10.176;2022-09-13T00:34:20;4.83;;;4.73;;
7029;SDS011;3556;53.500;10.176;2022-09-13T00:36:46;5.00;;;4.90;;
7029;SDS011;3556;53.500;10.176;2022-09-13T00:39:11;5.70;;;5.60;;
7029;SDS011;3556;53.500;10.176;2022-09-13T00:41:37;5.53;;;5.33;;
7029;SDS011;3556;53.500;10.176;2022-09-13T00:44:03;6.07;;;5.77;;
7029;SDS011;3556;53.500;10.176;2022-09-13T00:46:47;5.27;;;4.67;;
7029;SDS011;3556;53.500;10.176;2022-09-13T00:49:18;5.07;;;4.97;;
7029;SDS011;3556;53.500;10.176;2022-09-13T00:51:49;5.57;;;5.40;;
7029;SDS011;3556;53.500;10.176;2022-09-13T00:54:22;5.57;;;5.40;;
7029;SDS011;3556;53.500;10.176;2022-09-13T00:56:54;6.27;;;5.90;;
7029;SDS011;3556;53.500;10.176;2022-09-13T00:59:25;5.70;;;5.40;;
7029;SDS011;3556;53.500;10.176;2022-09-13T01:01:56;6.30;;;6.00;;
7029;SDS011;3556;53.500;10.176;2022-09-13T01:04:25;5.17;;;4.97;;
7029;SDS011;3556;53.500;10.176;2022-09-13T01:06:53;6.10;;;5.90;;
7029;SDS011;3556;53.500;10.176;2022-09-13T01:09:21;5.77;;;5.40;;
7029;SDS011;3556;53.500;10.176;2022-09-13T01:11:48;6.30;;;5.93;;
7029;SDS011;3556;53.500;10.176;2022-09-13T01:14:28;4.97;;;4.87;;
7029;SDS011;3556;53.500;10.176;2022-09-13T01:16:57;6.53;;;6.33;;
7029;SDS011;3556;53.500;10.176;2022-09-13T01:19:23;6.97;;;5.60;;
7029;SDS011;3556;53.500;10.176;2022-09-13T01:51:43;6.90;;;6.60;;
7029;SDS011;3556;53.500;10.176;2022-09-13T01:54:19;6.17;;;5.97;;
7029;SDS011;3556;53.500;10.176;2022-09-13T01:57:15;7.20;;;5.73;;
7029;SDS011;3556;53.500;10.176;2022-09-13T02:02:22;6.50;;;6.30;;
7029;SDS011;3556;53.500;10.176;2022-09-13T02:05:02;6.50;;;6.30;;
7029;SDS011;3556;53.500;10.176;2022-09-13T02:07:50;6.37;;;6.13;;
7029;SDS011;3556;53.500;10.176;2022-09-13T02:10:26;6.80;;;6.50;;
7029;SDS011;3556;53.500;10.176;2022-09-13T02:12:55;6.60;;;6.30;;
7029;SDS011;3556;53.500;10.176;2022-09-13T02:15:24;6.67;;;6.13;;
7029;SDS011;3556;53.500;10.176;2022-09-13T02:18:09;7.67;;;7.20;;
7029;SDS011;3556;53.500;10.176;2022-09-13T02:20:42;7.20;;;6.80;;
7029;SDS011;3556;53.500;10.176;2022-09-13T02:23:19;6.67;;;6.33;;
7029;SDS011;3556;53.500;10.176;2022-09-13T02:25:49;7.40;;;7.10;;
7029;SDS011;3556;53.500;10.176;2022-09-13T02:28:20;7.03;;;6.70;;
7029;SDS011;3556;53.500;10.176;2022-09-13T02:30:52;6.80;;;6.50;;
7029;SDS011;3556;53.500;10.176;2022-09-13T02:33:23;6.97;;;6.67;;
7029;SDS011;3556;53.500;10.176;2022-09-13T02:36:11;6.20;;;6.00;;
7029;SDS011;3556;53.500;10.176;2022-09-13T02:41:13;6.63;;;6.33;;
7029;SDS011;3556;53.500;10.176;2022-09-13T02:43:57;6.27;;;6.00;;
7029;SDS011;3556;53.500;10.176;2022-09-13T02:49:22;7.20;;;6.80;;
7029;SDS011;3556;53.500;10.176;2022-09-13T02:54:53;7.53;;;6.70;;
7029;SDS011;3556;53.500;10.176;2022-09-13T02:57:58;8.27;;;7.77;;
7029;SDS011;3556;53.500;10.176;2022-09-13T03:00:27;7.67;;;7.20;;
7029;SDS011;3556;53.500;10.176;2022-09-13T03:02:54;6.27;;;5.97;;
7029;SDS011;3556;53.500;10.176;2022-09-13T03:05:22;8.37;;;7.77;;
7029;SDS011;3556;53.500;10.176;2022-09-13T03:07:47;7.20;;;6.90;;
7029;SDS011;3556;53.500;10.176;2022-09-13T03:10:14;9.40;;;8.60;;
7029;SDS011;3556;53.500;10.176;2022-09-13T03:15:48;6.80;;;6.50;;
7029;SDS011;3556;53.500;10.176;2022-09-13T03:18:47;7.67;;;7.17;;
7029;SDS011;3556;53.500;10.176;2022-09-13T03:27:38;8.60;;;7.83;;
7029;SDS011;3556;53.500;10.176;2022-09-13T03:30:13;11.20;;;8.27;;
7029;SDS011;3556;53.500;10.176;2022-09-13T03:38:15;8.10;;;7.60;;
7029;SDS011;3556;53.500;10.176;2022-09-13T03:41:00;8.63;;;7.83;;
7029;SDS011;3556;53.500;10.176;2022-09-13T03:43:34;9.07;;;8.47;;
7029;SDS011;3556;53.500;10.176;2022-09-13T03:46:05;8.53;;;8.03;;
7029;SDS011;3556;53.500;10.176;2022-09-13T03:48:39;9.27;;;8.67;;
7029;SDS011;3556;53.500;10.176;2022-09-13T03:51:07;10.93;;;10.03;;
7029;SDS011;3556;53.500;10.176;2022-09-13T03:53:35;12.00;;;11.00;;
7029;SDS011;3556;53.500;10.176;2022-09-13T03:56:11;8.87;;;8.37;;
7029;SDS011;3556;53.500;10.176;2022-09-13T03:58:41;11.47;;;10.60;;
7029;SDS011;3556;53.500;10.176;2022-09-13T04:01:07;14.17;;;12.00;;
7029;SDS011;3556;53.500;10.176;2022-09-13T04:03:34;11.37;;;10.17;;
7029;SDS011;3556;53.500;10.176;2022-09-13T04:06:01;11.00;;;10.00;;
7029;SDS011;3556;53.500;10.176;2022-09-13T04:08:26;11.60;;;10.67;;
7029;SDS011;3556;53.500;10.176;2022-09-13T04:10:52;12.63;;;11.63;;
7029;SDS011;3556;53.500;10.176;2022-09-13T04:13:18;12.00;;;10.90;;
7029;SDS011;3556;53.500;10.176;2022-09-13T04:15:46;12.03;;;10.93;;
7029;SDS011;3556;53.500;10.176;2022-09-13T04:18:12;11.57;;;10.67;;
7029;SDS011;3556;53.500;10.176;2022-09-13T04:20:37;14.20;;;12.30;;
7029;SDS011;3556;53.500;10.176;2022-09-13T04:23:03;16.97;;;12.53;;
7029;SDS011;3556;53.500;10.176;2022-09-13T04:25:28;13.47;;;12.17;;
7029;SDS011;3556;53.500;10.176;2022-09-13T04:27:55;13.40;;;12.20;;
7029;SDS011;3556;53.500;10.176;2022-09-13T04:30:24;13.50;;;12.30;;
7029;SDS011;3556;53.500;10.176;2022-09-13T04:32:50;12.70;;;11.50;;
7029;SDS011;3556;53.500;10.176;2022-09-13T04:35:16;13.43;;;12.23;;
7029;SDS011;3556;53.500;10.176;2022-09-13T04:37:44;13.23;;;12.10;;
7029;SDS011;3556;53.500;10.176;2022-09-13T04:40:10;13.40;;;12.20;;
7029;SDS011;3556;53.500;10.176;2022-09-13T04:42:37;13.23;;;11.93;;
7029;SDS011;3556;53.500;10.176;2022-09-13T04:45:02;17.00;;;12.87;;
7029;SDS011;3556;53.500;10.176;2022-09-13T04:47:30;14.40;;;13.10;;
7029;SDS011;3556;53.500;10.176;2022-09-13T04:49:56;14.40;;;13.00;;
7029;SDS011;3556;53.500;10.176;2022-09-13T04:52:21;13.23;;;11.87;;
7029;SDS011;3556;53.500;10.176;2022-09-13T04:54:47;13.77;;;12.43;;
7029;SDS011;3556;53.500;10.176;2022-09-13T04:57:14;14.67;;;13.27;;
7029;SDS011;3556;53.500;10.176;2022-09-13T04:59:40;11.60;;;10.60;;
7029;SDS011;3556;53.500;10.176;2022-09-13T05:02:06;13.80;;;12.50;;
7029;SDS011;3556;53.500;10.176;2022-09-13T05:04:32;16.20;;;14.17;;
7029;SDS011;3556;53.500;10.176;2022-09-13T05:06:58;16.83;;;13.70;;
7029;SDS011;3556;53.500;10.176;2022-09-13T05:09:23;22.57;;;16.40;;
7029;SDS011;3556;53.500;10.176;2022-09-13T05:11:49;18.53;;;14.23;;
7029;SDS011;3556;53.500;10.176;2022-09-13T05:14:14;19.90;;;15.93;;
7029;SDS011;3556;53.500;10.176;2022-09-13T05:16:40;20.70;;;16.00;;
7029;SDS011;3556;53.500;10.176;2022-09-13T05:19:07;19.83;;;15.07;;
7029;SDS011;3556;53.500;10.176;2022-09-13T05:21:34;23.03;;;16.70;;
7029;SDS011;3556;53.500;10.176;2022-09-13T05:23:59;24.27;;;17.60;;
7029;SDS011;3556;53.500;10.176;2022-09-13T05:26:26;22.20;;;18.87;;
7029;SDS011;3556;53.500;10.176;2022-09-13T05:28:54;23.40;;;16.30;;
7029;SDS011;3556;53.500;10.176;2022-09-13T05:31:22;19.97;;;16.60;;
7029;SDS011;3556;53.500;10.176;2022-09-13T05:33:54;27.87;;;19.10;;
7029;SDS011;3556;53.500;10.176;2022-09-13T05:36:21;22.00;;;17.87;;
7029;SDS011;3556;53.500;10.176;2022-09-13T05:38:47;20.60;;;17.10;;
7029;SDS011;3556;53.500;10.176;2022-09-13T05:41:13;24.63;;;16.87;;
7029;SDS011;3556;53.500;10.176;2022-09-13T05:43:38;22.03;;;17.60;;
7029;SDS011;3556;53.500;10.176;2022-09-13T05:46:05;30.63;;;18.30;;
7029;SDS011;3556;53.500;10.176;2022-09-13T05:48:38;27.90;;;18.77;;
7029;SDS011;3556;53.500;10.176;2022-09-13T05:51:09;29.10;;;18.97;;
7029;SDS011;3556;53.500;10.176;2022-09-13T05:53:43;25.70;;;18.10;;
7029;SDS011;3556;53.500;10.176;2022-09-13T05:56:15;25.47;;;18.60;;
7029;SDS011;3556;53.500;10.176;2022-09-13T05:58:43;26.77;;;18.47;;
7029;SDS011;3556;53.500;10.176;2022-09-13T06:01:10;21.70;;;17.53;;
7029;SDS011;3556;53.500;10.176;2022-09-13T06:03:37;30.17;;;20.60;;
7029;SDS011;3556;53.500;10.176;2022-09-13T06:06:03;25.07;;;19.03;;
7029;SDS011;3556;53.500;10.176;2022-09-13T06:08:30;30.93;;;21.40;;
7029;SDS011;3556;53.500;10.176;2022-09-13T06:11:01;34.30;;;22.70;;
7029;SDS011;3556;53.500;10.176;2022-09-13T06:13:28;30.73;;;20.33;;
7029;SDS011;3556;53.500;10.176;2022-09-13T06:15:55;28.10;;;20.20;;
7029;SDS011;3556;53.500;10.176;2022-09-13T06:18:22;36.07;;;24.07;;
7029;SDS011;3556;53.500;10.176;2022-09-13T06:20:49;36.97;;;24.00;;
7029;SDS011;3556;53.500;10.176;2022-09-13T06:23:15;44.77;;;25.50;;
7029;SDS011;3556;53.500;10.176;2022-09-13T06:25:41;42.80;;;25.40;;
7029;SDS011;3556;53.500;10.176;2022-09-13T06:28:08;35.73;;;24.13;;
7029;SDS011;3556;53.500;10.176;2022-09-13T06:30:34;43.67;;;26.07;;
7029;SDS011;3556;53.500;10.176;2022-09-13T06:33:00;43.93;;;24.77;;
7029;SDS011;3556;53.500;10.176;2022-09-13T06:35:26;39.53;;;23.67;;
7029;SDS011;3556;53.500;10.176;2022-09-13T06:37:55;38.33;;;23.40;;
7029;SDS011;3556;53.500;10.176;2022-09-13T06:40:24;41.73;;;26.60;;
7029;SDS011;3556;53.500;10.176;2022-09-13T06:42:50;39.20;;;23.57;;
7029;SDS011;3556;53.500;10.176;2022-09-13T06:45:16;42.60;;;26.53;;
7029;SDS011;3556;53.500;10.176;2022-09-13T06:47:42;35.57;;;24.73;;
7029;SDS011;3556;53.500;10.176;2022-09-13T06:50:08;39.27;;;22.70;;
7029;SDS011;3556;53.500;10.176;2022-09-13T06:52:34;38.00;;;24.40;;
7029;SDS011;3556;53.500;10.176;2022-09-13T06:54:59;38.80;;;24.60;;
7029;SDS011;3556;53.500;10.176;2022-09-13T06:57:25;40.43;;;23.60;;
7029;SDS011;3556;53.500;10.176;2022-09-13T06:59:54;38.43;;;23.90;;
7029;SDS011;3556;53.500;10.176;2022-09-13T07:02:20;33.07;;;23.03;;
7029;SDS011;3556;53.500;10.176;2022-09-13T07:04:45;36.87;;;23.53;;
7029;SDS011;3556;53.500;10.176;2022-09-13T07:07:11;40.40;;;24.63;;
7029;SDS011;3556;53.500;10.176;2022-09-13T07:09:36;38.20;;;23.90;;
7029;SDS011;3556;53.500;10.176;2022-09-13T07:12:03;36.07;;;22.20;;
7029;SDS011;3556;53.500;10.176;2022-09-13T07:14:30;26.80;;;19.10;;
7029;SDS011;3556;53.500;10.176;2022-09-13T07:16:55;39.27;;;20.20;;
7029;SDS011;3556;53.500;10.176;2022-09-13T07:19:23;26.20;;;18.30;;
7029;SDS011;3556;53.500;10.176;2022-09-13T07:21:53;24.43;;;17.97;;
7029;SDS011;3556;53.500;10.176;2022-09-13T07:24:20;21.87;;;16.37;;
7029;SDS011;3556;53.500;10.176;2022-09-13T07:26:47;27.87;;;16.50;;
7029;SDS011;3556;53.500;10.176;2022-09-13T07:29:14;25.67;;;15.53;;
7029;SDS011;3556;53.500;10.176;2022-09-13T07:31:43;25.33;;;15.90;;
7029;SDS011;3556;53.500;10.176;2022-09-13T07:34:12;24.87;;;14.63;;
7029;SDS011;3556;53.500;10.176;2022-09-13T07:36:42;24.30;;;14.20;;
7029;SDS011;3556;53.500;10.176;2022-09-13T07:39:10;22.10;;;14.53;;
7029;SDS011;3556;53.500;10.176;2022-09-13T07:41:36;21.77;;;14.20;;
7029;SDS011;3556;53.500;10.176;2022-09-13T07:44:02;17.10;;;12.90;;
7029;SDS011;3556;53.500;10.176;2022-09-13T07:46:30;18.40;;;13.00;;
7029;SDS011;3556;53.500;10.176;2022-09-13T07:48:57;18.20;;;11.90;;
7029;SDS011;3556;53.500;10.176;2022-09-13T07:51:26;19.40;;;11.43;;
7029;SDS011;3556;53.500;10.176;2022-09-13T07:53:57;16.93;;;12.40;;
7029;SDS011;3556;53.500;10.176;2022-09-13T07:56:26;23.93;;;12.77;;
7029;SDS011;3556;53.500;10.176;2022-09-13T07:58:53;17.77;;;12.43;;
7029;SDS011;3556;53.500;10.176;2022-09-13T08:01:32;14.43;;;11.53;;
7029;SDS011;3556;53.500;10.176;2022-09-13T08:04:04;17.80;;;11.83;;
7029;SDS011;3556;53.500;10.176;2022-09-13T08:06:31;24.27;;;13.83;;
7029;SDS011;3556;53.500;10.176;2022-09-13T08:08:58;27.33;;;14.40;;
7029;SDS011;3556;53.500;10.176;2022-09-13T08:11:25;19.90;;;12.90;;
7029;SDS011;3556;53.500;10.176;2022-09-13T08:13:55;20.80;;;13.63;;
7029;SDS011;3556;53.500;10.176;2022-09-13T08:16:22;15.77;;;12.50;;
7029;SDS011;3556;53.500;10.176;2022-09-13T08:18:49;25.00;;;12.00;;
7029;SDS011;3556;53.500;10.176;2022-09-13T08:21:16;24.83;;;11.30;;
7029;SDS011;3556;53.500;10.176;2022-09-13T08:23:42;11.47;;;10.17;;
7029;SDS011;3556;53.500;10.176;2022-09-13T08:26:09;13.80;;;8.80;;
7029;SDS011;3556;53.500;10.176;2022-09-13T08:28:36;14.13;;;9.50;;
7029;SDS011;3556;53.500;10.176;2022-09-13T08:31:03;15.90;;;8.20;;
7029;SDS011;3556;53.500;10.176;2022-09-13T08:33:30;16.97;;;8.47;;
7029;SDS011;3556;53.500;10.176;2022-09-13T08:35:57;15.93;;;7.77;;
7029;SDS011;3556;53.500;10.176;2022-09-13T08:38:23;8.00;;;7.30;;
7029;SDS011;3556;53.500;10.176;2022-09-13T08:40:50;14.83;;;6.97;;
7029;SDS011;3556;53.500;10.176;2022-09-13T08:43:21;8.17;;;6.50;;
7029;SDS011;3556;53.500;10.176;2022-09-13T08:48:46;12.43;;;6.20;;
7029;SDS011;3556;53.500;10.176;2022-09-13T08:51:39;9.77;;;5.73;;
7029;SDS011;3556;53.500;10.176;2022-09-13T08:54:04;13.80;;;5.40;;
7029;SDS011;3556;53.500;10.176;2022-09-13T08:56:37;11.70;;;5.07;;
7029;SDS011;3556;53.500;10.176;2022-09-13T09:07:27;4.37;;;3.97;;
7029;SDS011;3556;53.500;10.176;2022-09-13T09:10:02;12.17;;;3.90;;
7029;SDS011;3556;53.500;10.176;2022-09-13T09:15:47;8.90;;;3.40;;
7029;SDS011;3556;53.500;10.176;2022-09-13T09:18:23;12.90;;;3.47;;
7029;SDS011;3556;53.500;10.176;2022-09-13T09:20:56;9.03;;;3.50;;
7029;SDS011;3556;53.500;10.176;2022-09-13T09:23:40;8.40;;;3.00;;
7029;SDS011;3556;53.500;10.176;2022-09-13T09:26:13;6.70;;;2.97;;
7029;SDS011;3556;53.500;10.176;2022-09-13T09:28:49;6.67;;;2.50;;
7029;SDS011;3556;53.500;10.176;2022-09-13T09:36:39;9.67;;;1.70;;
7029;SDS011;3556;53.500;10.176;2022-09-13T09:39:15;5.20;;;1.60;;
7029;SDS011;3556;53.500;10.176;2022-09-13T09:41:41;2.17;;;1.67;;
7029;SDS011;3556;53.500;10.176;2022-09-13T09:47:01;1.33;;;1.23;;
7029;SDS011;3556;53.500;10.176;2022-09-13T09:49:38;3.57;;;2.17;;
7029;SDS011;3556;53.500;10.176;2022-09-13T09:52:32;7.77;;;1.73;;
7029;SDS011;3556;53.500;10.176;2022-09-13T09:55:22;4.07;;;1.57;;
7029;SDS011;3556;53.500;10.176;2022-09-13T09:58:10;2.03;;;1.30;;
7029;SDS011;3556;53.500;10.176;2022-09-13T10:00:53;6.33;;;1.30;;
7029;SDS011;3556;53.500;10.176;2022-09-13T10:03:24;2.53;;;1.37;;
7029;SDS011;3556;53.500;10.176;2022-09-13T10:11:39;5.27;;;1.10;;
7029;SDS011;3556;53.500;10.176;2022-09-13T10:14:49;2.13;;;0.97;;
7029;SDS011;3556;53.500;10.176;2022-09-13T10:22:18;3.70;;;0.97;;
7029;SDS011;3556;53.500;10.176;2022-09-13T10:24:44;7.03;;;1.10;;
7029;SDS011;3556;53.500;10.176;2022-09-13T10:27:21;8.47;;;1.17;;
7029;SDS011;3556;53.500;10.176;2022-09-13T10:29:50;5.13;;;1.50;;
7029;SDS011;3556;53.500;10.176;2022-09-13T10:32:19;5.20;;;1.10;;
7029;SDS011;3556;53.500;10.176;2022-09-13T10:34:45;3.37;;;1.20;;
7029;SDS011;3556;53.500;10.176;2022-09-13T10:37:14;1.83;;;1.10;;
7029;SDS011;3556;53.500;10.176;2022-09-13T10:39:56;7.80;;;1.20;;
7029;SDS011;3556;53.500;10.176;2022-09-13T10:42:33;2.43;;;1.33;;
7029;SDS011;3556;53.500;10.176;2022-09-13T10:45:00;8.00;;;1.17;;
7029;SDS011;3556;53.500;10.176;2022-09-13T10:47:33;2.70;;;1.10;;
7029;SDS011;3556;53.500;10.176;2022-09-13T10:50:26;2.80;;;1.07;;
7029;SDS011;3556;53.500;10.176;2022-09-13T10:52:54;4.13;;;1.03;;
7029;SDS011;3556;53.500;10.176;2022-09-13T10:55:37;7.70;;;1.30;;
7029;SDS011;3556;53.500;10.176;2022-09-13T11:00:45;1.97;;;0.97;;
7029;SDS011;3556;53.500;10.176;2022-09-13T11:11:54;2.00;;;0.90;;
7029;SDS011;3556;53.500;10.176;2022-09-13T11:14:46;6.57;;;0.87;;
7029;SDS011;3556;53.500;10.176;2022-09-13T11:17:32;6.00;;;1.00;;
7029;SDS011;3556;53.500;10.176;2022-09-13T11:20:14;3.57;;;1.20;;
7029;SDS011;3556;53.500;10.176;2022-09-13T11:52:52;5.57;;;2.77;;
7029;SDS011;3556;53.500;10.176;2022-09-13T11:55:33;6.53;;;1.93;;
7029;SDS011;3556;53.500;10.176;2022-09-13T11:58:30;5.67;;;1.30;;
7029;SDS011;3556;53.500;10.176;2022-09-13T12:01:01;3.97;;;1.20;;
7029;SDS011;3556;53.500;10.176;2022-09-13T12:06:11;3.17;;;1.00;;
7029;SDS011;3556;53.500;10.176;2022-09-13T12:08:46;4.80;;;1.13;;
7029;SDS011;3556;53.500;10.176;2022-09-13T12:14:14;3.33;;;1.27;;
7029;SDS011;3556;53.500;10.176;2022-09-13T12:16:50;2.67;;;1.23;;
7029;SDS011;3556;53.500;10.176;2022-09-13T12:20:10;3.90;;;1.40;;
7029;SDS011;3556;53.500;10.176;2022-09-13T12:22:14;5.20;;;1.30;;
7029;SDS011;3556;53.500;10.176;2022-09-13T12:24:42;4.50;;;1.17;;
7029;SDS011;3556;53.500;10.176;2022-09-13T12:27:22;4.43;;;1.30;;
7029;SDS011;3556;53.500;10.176;2022-09-13T12:29:50;10.37;;;1.23;;
7029;SDS011;3556;53.500;10.176;2022-09-13T12:32:19;5.57;;;1.10;;
7029;SDS011;3556;53.500;10.176;2022-09-13T12:43:09;4.40;;;1.13;;
7029;SDS011;3556;53.500;10.176;2022-09-13T12:46:33;5.70;;;1.40;;
7029;SDS011;3556;53.500;10.176;2022-09-13T12:51:48;3.20;;;1.10;;
7029;SDS011;3556;53.500;10.176;2022-09-13T13:03:24;4.73;;;1.43;;
7029;SDS011;3556;53.500;10.176;2022-09-13T13:05:30;2.93;;;1.30;;
7029;SDS011;3556;53.500;10.176;2022-09-13T13:08:03;1.97;;;1.10;;
7029;SDS011;3556;53.500;10.176;2022-09-13T13:10:33;3.27;;;1.20;;
7029;SDS011;3556;53.500;10.176;2022-09-13T13:13:20;7.83;;;1.23;;
7029;SDS011;3556;53.500;10.176;2022-09-13T13:15:55;6.27;;;1.40;;
7029;SDS011;3556;53.500;10.176;2022-09-13T13:18:26;2.93;;;0.90;;
7029;SDS011;3556;53.500;10.176;2022-09-13T13:21:22;4.03;;;1.20;;
7029;SDS011;3556;53.500;10.176;2022-09-13T13:32:06;9.20;;;1.30;;
7029;SDS011;3556;53.500;10.176;2022-09-13T13:34:36;2.50;;;1.30;;
7029;SDS011;3556;53.500;10.176;2022-09-13T13:46:52;6.47;;;1.37;;
7029;SDS011;3556;53.500;10.176;2022-09-13T14:11:20;7.80;;;1.00;;
7029;SDS011;3556;53.500;10.176;2022-09-13T14:20:15;2.90;;;1.10;;
7029;SDS011;3556;53.500;10.176;2022-09-13T14:22:43;4.53;;;1.40;;
7029;SDS011;3556;53.500;10.176;2022-09-13T14:27:44;6.63;;;1.23;;
7029;SDS011;3556;53.500;10.176;2022-09-13T14:30:21;7.13;;;1.60;;
7029;SDS011;3556;53.500;10.176;2022-09-13T14:32:52;4.83;;;1.30;;
7029;SDS011;3556;53.500;10.176;2022-09-13T14:37:48;8.13;;;1.30;;
7029;SDS011;3556;53.500;10.176;2022-09-13T14:40:21;4.47;;;1.33;;
7029;SDS011;3556;53.500;10.176;2022-09-13T14:42:50;12.53;;;1.40;;
7029;SDS011;3556;53.500;10.176;2022-09-13T14:45:24;13.03;;;1.33;;
7029;SDS011;3556;53.500;10.176;2022-09-13T14:48:04;2.03;;;1.30;;
7029;SDS011;3556;53.500;10.176;2022-09-13T14:50:38;6.57;;;1.53;;
7029;SDS011;3556;53.500;10.176;2022-09-13T14:53:09;2.50;;;1.00;;
7029;SDS011;3556;53.500;10.176;2022-09-13T14:55:50;5.27;;;1.80;;
7029;SDS011;3556;53.500;10.176;2022-09-13T14:58:28;7.53;;;1.80;;
7029;SDS011;3556;53.500;10.176;2022-09-13T15:01:17;3.53;;;1.00;;
7029;SDS011;3556;53.500;10.176;2022-09-13T15:03:46;10.90;;;1.33;;
7029;SDS011;3556;53.500;10.176;2022-09-13T15:06:21;4.20;;;1.20;;
7029;SDS011;3556;53.500;10.176;2022-09-13T15:08:49;6.23;;;1.77;;
7029;SDS011;3556;53.500;10.176;2022-09-13T15:11:34;11.20;;;1.30;;
7029;SDS011;3556;53.500;10.176;2022-09-13T15:14:47;3.93;;;1.63;;
7029;SDS011;3556;53.500;10.176;2022-09-13T15:16:48;1.93;;;1.23;;
7029;SDS011;3556;53.500;10.176;2022-09-13T15:19:26;8.67;;;1.67;;
7029;SDS011;3556;53.500;10.176;2022-09-13T15:22:01;6.77;;;1.43;;
7029;SDS011;3556;53.500;10.176;2022-09-13T15:24:36;5.90;;;1.30;;
7029;SDS011;3556;53.500;10.176;2022-09-13T15:27:13;5.57;;;1.80;;
7029;SDS011;3556;53.500;10.176;2022-09-13T15:29:58;5.43;;;1.33;;
7029;SDS011;3556;53.500;10.176;2022-09-13T15:35:24;6.17;;;1.47;;
7029;SDS011;3556;53.500;10.176;2022-09-13T15:40:44;1.57;;;1.00;;
7029;SDS011;3556;53.500;10.176;2022-09-13T15:43:12;7.97;;;1.47;;
7029;SDS011;3556;53.500;10.176;2022-09-13T15:45:38;6.97;;;1.37;;
7029;SDS011;3556;53.500;10.176;2022-09-13T15:48:04;4.77;;;1.40;;
7029;SDS011;3556;53.500;10.176;2022-09-13T15:50:30;7.40;;;1.40;;
7029;SDS011;3556;53.500;10.176;2022-09-13T15:52:57;6.97;;;1.77;;
7029;SDS011;3556;53.500;10.176;2022-09-13T15:55:24;1.73;;;1.13;;
7029;SDS011;3556;53.500;10.176;2022-09-13T15:57:51;4.23;;;1.13;;
7029;SDS011;3556;53.500;10.176;2022-09-13T16:00:19;3.33;;;1.53;;
7029;SDS011;3556;53.500;10.176;2022-09-13T16:02:49;12.37;;;1.40;;
7029;SDS011;3556;53.500;10.176;2022-09-13T16:05:15;9.50;;;1.77;;
7029;SDS011;3556;53.500;10.176;2022-09-13T16:07:41;6.23;;;1.43;;
7029;SDS011;3556;53.500;10.176;2022-09-13T16:10:15;6.93;;;1.97;;
7029;SDS011;3556;53.500;10.176;2022-09-13T16:12:43;16.93;;;2.40;;
7029;SDS011;3556;53.500;10.176;2022-09-13T16:15:09;7.13;;;1.83;;
7029;SDS011;3556;53.500;10.176;2022-09-13T16:17:36;13.87;;;1.87;;
7029;SDS011;3556;53.500;10.176;2022-09-13T16:20:03;4.80;;;1.30;;
7029;SDS011;3556;53.500;10.176;2022-09-13T16:22:31;14.47;;;1.83;;
7029;SDS011;3556;53.500;10.176;2022-09-13T16:24:56;5.53;;;1.50;;
7029;SDS011;3556;53.500;10.176;2022-09-13T16:27:22;4.30;;;1.80;;
7029;SDS011;3556;53.500;10.176;2022-09-13T16:29:50;5.93;;;1.30;;
7029;SDS011;3556;53.500;10.176;2022-09-13T16:32:16;8.80;;;1.83;;
7029;SDS011;3556;53.500;10.176;2022-09-13T16:34:42;7.73;;;1.50;;
7029;SDS011;3556;53.500;10.176;2022-09-13T16:37:09;10.87;;;1.77;;
7029;SDS011;3556;53.500;10.176;2022-09-13T16:39:39;3.07;;;0.97;;
7029;SDS011;3556;53.500;10.176;2022-09-13T16:42:05;5.30;;;1.33;;
7029;SDS011;3556;53.500;10.176;2022-09-13T16:44:30;4.30;;;1.30;;
7029;SDS011;3556;53.500;10.176;2022-09-13T16:46:56;6.87;;;2.10;;
7029;SDS011;3556;53.500;10.176;2022-09-13T16:49:22;2.20;;;1.00;;
7029;SDS011;3556;53.500;10.176;2022-09-13T16:51:49;2.80;;;1.40;;
7029;SDS011;3556;53.500;10.176;2022-09-13T16:54:15;3.13;;;1.20;;
7029;SDS011;3556;53.500;10.176;2022-09-13T16:56:40;6.30;;;1.20;;
7029;SDS011;3556;53.500;10.176;2022-09-13T16:59:06;6.10;;;1.20;;
7029;SDS011;3556;53.500;10.176;2022-09-13T17:01:32;12.63;;;1.47;;
7029;SDS011;3556;53.500;10.176;2022-09-13T17:03:58;3.90;;;1.33;;
7029;SDS011;3556;53.500;10.176;2022-09-13T17:06:24;7.13;;;1.50;;
7029;SDS011;3556;53.500;10.176;2022-09-13T17:09:00;9.37;;;1.33;;
7029;SDS011;3556;53.500;10.176;2022-09-13T17:11:30;2.87;;;1.73;;
7029;SDS011;3556;53.500;10.176;2022-09-13T17:13:58;5.43;;;1.30;;
7029;SDS011;3556;53.500;10.176;2022-09-13T17:16:27;13.07;;;1.30;;
7029;SDS011;3556;53.500;10.176;2022-09-13T17:18:56;4.00;;;1.10;;
7029;SDS011;3556;53.500;10.176;2022-09-13T17:21:23;2.90;;;1.40;;
7029;SDS011;3556;53.500;10.176;2022-09-13T17:23:49;13.73;;;1.70;;
7029;SDS011;3556;53.500;10.176;2022-09-13T17:26:15;4.10;;;0.97;;
7029;SDS011;3556;53.500;10.176;2022-09-13T17:28:41;1.87;;;1.03;;
7029;SDS011;3556;53.500;10.176;2022-09-13T17:31:07;4.43;;;1.40;;
7029;SDS011;3556;53.500;10.176;2022-09-13T17:33:32;3.43;;;1.60;;
7029;SDS011;3556;53.500;10.176;2022-09-13T17:36:05;5.70;;;1.23;;
7029;SDS011;3556;53.500;10.176;2022-09-13T17:38:34;2.03;;;1.50;;
7029;SDS011;3556;53.500;10.176;2022-09-13T17:41:01;2.00;;;1.33;;
7029;SDS011;3556;53.500;10.176;2022-09-13T17:43:28;5.70;;;1.20;;
7029;SDS011;3556;53.500;10.176;2022-09-13T17:45:54;2.90;;;1.10;;
7029;SDS011;3556;53.500;10.176;2022-09-13T17:48:21;3.97;;;1.67;;
7029;SDS011;3556;53.500;10.176;2022-09-13T17:50:47;4.67;;;1.30;;
7029;SDS011;3556;53.500;10.176;2022-09-13T17:53:12;4.77;;;1.30;;
7029;SDS011;3556;53.500;10.176;2022-09-13T17:55:45;3.30;;;1.30;;
7029;SDS011;3556;53.500;10.176;2022-09-13T17:58:11;4.83;;;1.50;;
7029;SDS011;3556;53.500;10.176;2022-09-13T18:00:37;2.70;;;1.30;;
7029;SDS011;3556;53.500;10.176;2022-09-13T18:03:03;6.00;;;1.20;;
7029;SDS011;3556;53.500;10.176;2022-09-13T18:05:28;6.70;;;1.57;;
7029;SDS011;3556;53.500;10.176;2022-09-13T18:07:54;2.80;;;1.20;;
7029;SDS011;3556;53.500;10.176;2022-09-13T18:10:20;3.00;;;1.10;;
7029;SDS011;3556;53.500;10.176;2022-09-13T18:12:45;4.60;;;1.30;;
7029;SDS011;3556;53.500;10.176;2022-09-13T18:15:11;2.83;;;1.37;;
7029;SDS011;3556;53.500;10.176;2022-09-13T18:17:37;9.20;;;2.13;;
7029;SDS011;3556;53.500;10.176;2022-09-13T18:20:03;3.00;;;1.30;;
7029;SDS011;3556;53.500;10.176;2022-09-13T18:22:28;12.60;;;1.60;;
7029;SDS011;3556;53.500;10.176;2022-09-13T18:24:55;2.03;;;1.20;;
7029;SDS011;3556;53.500;10.176;2022-09-13T18:27:20;4.07;;;1.40;;
7029;SDS011;3556;53.500;10.176;2022-09-13T18:29:46;9.00;;;1.87;;
7029;SDS011;3556;53.500;10.176;2022-09-13T18:32:12;2.73;;;1.20;;
7029;SDS011;3556;53.500;10.176;2022-09-13T18:34:37;20.03;;;2.10;;
7029;SDS011;3556;53.500;10.176;2022-09-13T18:37:06;2.70;;;1.23;;
7029;SDS011;3556;53.500;10.176;2022-09-13T18:39:31;2.83;;;1.47;;
7029;SDS011;3556;53.500;10.176;2022-09-13T18:41:57;6.70;;;1.40;;
7029;SDS011;3556;53.500;10.176;2022-09-13T18:44:24;3.20;;;1.57;;